Time;durP1;ratioP1;P1;durP2;ratioP2;P2;SDS_P1;SDS_P2;PMS_P1;PMS_P2;Temp;Humidity;BMP_temperature;BMP_pressure;BME280_temperature;BME280_humidity;BME280_pressure;Samples;Min_cycle;Max_cycle;Signal;HPM_P1;HPM_P2
2023/05/18 00:03:07;;;;;;;;;;;;;;;12.46;100.00;97180.28;10279572;28;20109;-49
2023/05/18 00:08:05;;;;;;;7.72;5.63;;;;;;;12.46;100.00;97169.84;10279803;28;19918;-48
2023/05/18 00:13:07;;;;;;;;;;;;;;;12.58;100.00;97181.78;10279789;28;20535;-51
2023/05/18 00:18:07;;;;;;;13.65;6.80;;;;;;;12.64;100.00;97182.53;10279458;28;20442;-51
2023/05/18 00:23:09;;;;;;;7.45;3.88;;;;;;;12.62;100.00;97192.13;10279273;28;20084;-50
2023/05/18 00:28:08;;;;;;;4.68;2.90;;;;;;;12.62;100.00;97181.72;10278546;28;20076;-51
2023/05/18 00:33:07;;;;;;;;;;;;;;;12.62;100.00;97183.47;10279321;28;20076;-50
2023/05/18 00:38:06;;;;;;;3.60;2.85;;;;;;;12.53;100.00;97158.44;10278464;28;19967;-48
2023/05/18 00:43:04;;;;;;;;;;;;;;;12.67;100.00;97185.09;10280146;28;20042;-48
2023/05/18 00:48:04;;;;;;;6.53;3.05;;;;;;;12.70;100.00;97177.22;10286340;28;19921;-51
2023/05/18 00:53:03;;;;;;;4.78;3.05;;;;;;;12.67;100.00;97185.09;10285313;28;20505;-49
2023/05/18 00:58:01;;;;;;;;;;;;;;;12.63;100.00;97180.84;10286392;28;20044;-50
2023/05/18 01:03:00;;;;;;;5.22;3.10;;;;;;;12.55;100.00;97167.09;10285236;28;20368;-50
2023/05/18 01:08:01;;;;;;;4.72;2.72;;;;;;;12.58;100.00;97181.78;10285098;28;20104;-50
2023/05/18 01:13:14;;;;;;;4.22;3.35;;;;;;;12.51;100.00;97192.34;10285114;28;20105;-50
2023/05/18 01:18:22;;;;;;;7.63;5.07;;;;;;;12.49;100.00;97191.50;10285092;28;20460;-51
2023/05/18 01:23:43;;;;;;;8.82;5.38;;;;;;;12.47;100.00;97195.00;10285017;28;20146;-50
2023/05/18 01:28:47;;;;;;;7.13;4.97;;;;;;;12.46;100.00;97183.75;10285223;28;20077;-51
2023/05/18 01:33:46;;;;;;;6.30;4.53;;;;;;;12.50;100.00;97189.75;10285159;28;20459;-51
2023/05/18 01:38:45;;;;;;;;;;;;;;;12.58;100.00;97187.00;10283936;28;20030;-50
2023/05/18 01:43:52;;;;;;;7.28;3.80;;;;;;;12.66;100.00;97185.97;10283870;28;20031;-50
2023/05/18 01:48:55;;;;;;;5.82;3.67;;;;;;;12.49;100.00;97154.22;10283823;28;20096;-49
2023/05/18 01:54:01;;;;;;;6.65;3.72;;;;;;;12.29;100.00;97131.13;10282728;28;20125;-51
2023/05/18 01:59:01;;;;;;;8.23;4.28;;;;;;;12.64;100.00;97194.69;10283889;28;20129;-51
2023/05/18 02:04:00;;;;;;;11.18;6.80;;;;;;;12.55;100.00;97200.94;10279902;28;20053;-51
2023/05/18 02:08:59;;;;;;;;;;;;;;;12.38;100.00;97210.78;10283209;28;20113;-51
2023/05/18 02:13:59;;;;;;;15.40;8.03;;;;;;;11.99;100.00;97174.09;10282425;28;19921;-51
2023/05/18 02:18:59;;;;;;;9.68;4.78;;;;;;;12.14;100.00;97212.03;10282362;28;20120;-52
2023/05/18 02:23:58;;;;;;;11.23;6.13;;;;;;;11.99;100.00;97221.75;10282571;28;20134;-51
2023/05/18 02:28:57;;;;;;;10.07;5.32;;;;;;;12.03;100.00;97236.44;10281485;28;20136;-51
2023/05/18 02:33:56;;;;;;;9.00;5.35;;;;;;;12.17;100.00;97233.63;10281990;28;20045;-52
2023/05/18 02:38:56;;;;;;;14.02;8.02;;;;;;;12.10;100.00;97214.66;10281981;28;20538;-51
2023/05/18 02:43:55;;;;;;;13.32;7.88;;;;;;;12.17;100.00;97235.38;10282350;28;20077;-51
2023/05/18 02:48:54;;;;;;;12.52;6.72;;;;;;;12.23;100.00;97233.53;10281201;28;20145;-52
2023/05/18 02:53:53;;;;;;;11.77;6.55;;;;;;;12.33;100.00;97243.84;10281189;28;21398;-52
2023/05/18 02:58:56;;;;;;;;;;;;;;;12.29;100.00;97241.25;10280649;28;20025;-52
2023/05/18 03:03:58;;;;;;;17.40;9.70;;;;;;;12.28;100.00;97252.56;10281471;28;19944;-51
2023/05/18 03:08:57;;;;;;;19.73;11.60;;;;;;;12.20;100.00;97256.97;10279805;28;20121;-51
2023/05/18 03:13:56;;;;;;;19.60;11.40;;;;;;;12.23;100.00;97248.28;10280397;28;20468;-51
2023/05/18 03:18:57;;;;;;;;;;;;;;;12.31;100.00;97256.84;10281010;28;20658;-52
2023/05/18 03:23:56;;;;;;;20.60;12.15;;;;;;;12.19;100.00;97276.06;10280608;28;20375;-51
2023/05/18 03:28:58;;;;;;;;;;;;;;;12.11;100.00;97283.16;10280018;28;20031;-51
2023/05/18 03:33:57;;;;;;;25.27;13.63;;;;;;;11.97;100.00;97288.56;10279980;28;20404;-51
2023/05/18 03:38:56;;;;;;;;;;;;;;;11.93;100.00;97283.41;10280324;28;20112;-51
2023/05/18 03:43:55;;;;;;;31.27;17.23;;;;;;;11.85;100.00;97280.91;10279472;28;19936;-51
2023/05/18 03:48:53;;;;;;;;;;;;;;;12.01;100.00;97297.16;10280400;28;20081;-51
2023/05/18 03:53:52;;;;;;;16.40;10.95;;;;;;;11.98;100.00;97300.66;10279096;28;19956;-51
2023/05/18 03:58:51;;;;;;;;;;;;;;;11.89;100.00;97296.44;10279705;28;20111;-51
2023/05/18 04:03:51;;;;;;;16.98;9.88;;;;;;;11.92;100.00;97305.06;10280150;28;19979;-51
2023/05/18 04:08:50;;;;;;;15.50;8.27;;;;;;;11.31;100.00;97227.03;10278676;28;20157;-51
2023/05/18 04:13:49;;;;;;;;;;;;;;;11.57;100.00;97311.59;10279259;28;20129;-53
2023/05/18 04:18:48;;;;;;;20.25;11.18;;;;;;;11.59;100.00;97328.88;10283517;28;20385;-53
2023/05/18 04:23:47;;;;;;;18.27;10.07;;;;;;;11.62;100.00;97330.59;10287373;28;20125;-53
2023/05/18 04:28:46;;;;;;;17.52;9.52;;;;;;;11.58;100.00;97311.56;10286347;28;20072;-53
2023/05/18 04:33:46;;;;;;;14.73;8.77;;;;;;;11.66;100.00;97340.91;10286401;28;20033;-53
2023/05/18 04:38:45;;;;;;;14.35;8.10;;;;;;;11.68;100.00;97338.31;10286586;28;20500;-53
2023/05/18 04:43:46;;;;;;;16.65;9.00;;;;;;;11.05;100.00;97248.13;10285768;28;20116;-53
2023/05/18 04:48:48;;;;;;;20.50;10.80;;;;;;;11.15;100.00;97239.34;10285509;28;20152;-53
2023/05/18 04:53:49;;;;;;;30.85;13.80;;;;;;;11.44;100.00;97308.28;10282730;28;20144;-52
2023/05/18 04:58:48;;;;;;;37.30;15.18;;;;;;;11.75;100.00;97363.34;10284294;28;20521;-53
2023/05/18 05:03:47;;;;;;;46.72;19.08;;;;;;;11.55;100.00;97373.09;10283142;28;20139;-53
2023/05/18 05:08:46;;;;;;;;;;;;;;;11.64;100.00;97386.88;10279784;28;20030;-52
2023/05/18 05:13:45;;;;;;;47.00;20.70;;;;;;;11.66;100.00;97390.31;10284341;28;19929;-53
2023/05/18 05:18:44;;;;;;;;;;;;;;;11.69;100.00;97402.44;10285374;28;20036;-53
2023/05/18 05:23:44;;;;;;;57.30;24.93;;;;;;;11.60;100.00;97399.94;10284727;28;19971;-53
2023/05/18 05:28:43;;;;;;;58.55;30.00;;;;;;;11.51;100.00;97403.47;10283577;28;20789;-53
2023/05/18 05:33:42;;;;;;;;;;;;;;;11.48;100.00;97418.22;10285144;28;20121;-53
2023/05/18 05:38:41;;;;;;;60.67;32.80;;;;;;;11.35;100.00;97417.50;10281331;28;19921;-52
2023/05/18 05:43:39;;;;;;;;;;;;;;;11.34;100.00;97416.66;10282244;28;20479;-53
2023/05/18 05:48:38;;;;;;;60.90;34.50;;;;;;;11.41;100.00;97422.66;10283228;28;20342;-53
2023/05/18 05:53:37;;;;;;;60.75;36.03;;;;;;;11.47;100.00;97419.97;10281264;28;20034;-52
2023/05/18 05:58:36;;;;;;;;;;;;;;;11.75;100.00;97425.72;10283358;28;20515;-52
2023/05/18 06:03:36;;;;;;;54.13;31.52;;;;;;;11.49;100.00;97431.22;10282732;28;19964;-53
2023/05/18 06:08:35;;;;;;;69.22;42.15;;;;;;;11.52;100.00;97432.91;10283724;28;20112;-53
2023/05/18 06:13:34;;;;;;;;;;;;;;;11.66;100.00;97444.03;10283269;28;20137;-53
2023/05/18 06:18:33;;;;;;;57.47;33.67;;;;;;;11.62;100.00;97447.56;10282720;28;19920;-52
2023/05/18 06:23:32;;;;;;;58.63;35.00;;;;;;;11.70;100.00;97450.91;10283015;28;20049;-53
2023/05/18 06:28:31;;;;;;;;;;;;;;;11.76;100.00;97456.06;10281957;28;20426;-53
2023/05/18 06:33:30;;;;;;;64.32;34.83;;;;;;;11.66;100.00;97463.06;10281650;28;20012;-53
2023/05/18 06:38:29;;;;;;;;;;;;;;;11.78;100.00;97467.31;10282618;28;20069;-53
2023/05/18 06:43:28;;;;;;;55.92;33.45;;;;;;;11.79;100.00;97471.63;10280592;28;20019;-53
2023/05/18 06:48:27;;;;;;;51.53;32.80;;;;;;;11.63;100.00;97485.66;10280795;28;20052;-53
2023/05/18 06:53:26;;;;;;;51.38;32.05;;;;;;;11.59;100.00;97491.75;10281615;28;20144;-53
2023/05/18 06:58:25;;;;;;;;;;;;;;;11.79;100.00;97488.97;10280660;28;20491;-53
2023/05/18 07:03:24;;;;;;;49.80;31.08;;;;;;;11.83;100.00;97494.13;10280330;28;19923;-52
2023/05/18 07:08:24;;;;;;;43.67;28.95;;;;;;;11.86;100.00;97508.81;10281508;28;20034;-52
2023/05/18 07:13:24;;;;;;;42.80;30.60;;;;;;;12.07;100.00;97508.59;10280614;28;20491;-50
2023/05/18 07:18:23;;;;;;;35.95;26.55;;;;;;;12.42;100.00;97515.16;10279054;28;20061;-51
2023/05/18 07:23:22;;;;;;;;;;;;;;;12.64;100.00;97520.94;10281134;28;20108;-50
2023/05/18 07:28:21;;;;;;;32.13;23.37;;;;;;;12.89;100.00;97525.84;10279813;28;20012;-51
2023/05/18 07:33:19;;;;;;;;;;;;;;;13.04;100.00;97532.56;10280095;28;20032;-51
2023/05/18 07:38:18;;;;;;;31.70;23.60;;;;;;;13.15;100.00;97539.34;10278982;28;19917;-50
2023/05/18 07:43:17;;;;;;;;;;;;;;;13.38;100.00;97545.09;10279804;28;20032;-51
2023/05/18 07:48:16;;;;;;;27.25;20.42;;;;;;;13.56;100.00;97545.72;10279308;28;20376;-53
2023/05/18 07:53:15;;;;;;;;;;;;;;;13.81;100.00;97552.25;10279426;28;20127;-52
2023/05/18 07:58:14;;;;;;;24.77;18.57;;;;;;;13.66;100.00;97550.78;10278902;28;19956;-52
2023/05/18 08:03:13;;;;;;;19.60;15.98;;;;;;;13.67;100.00;97563.75;10279595;28;20057;-51
2023/05/18 08:08:14;;;;;;;;;;;;;;;13.97;100.00;97566.75;10279736;28;20044;-51
2023/05/18 08:13:12;;;;;;;21.33;16.38;;;;;;;13.95;100.00;97571.97;10279532;28;20016;-51
2023/05/18 08:18:11;;;;;;;22.55;16.83;;;;;;;13.91;100.00;97562.50;10275806;28;20037;-51
2023/05/18 08:23:10;;;;;;;;;;;;;;;14.06;100.00;97578.78;10279357;28;20377;-50
2023/05/18 08:28:10;;;;;;;19.47;14.97;;;;;;;14.03;100.00;97589.25;10278663;28;19917;-51
2023/05/18 08:33:09;;;;;;;19.02;15.00;;;;;;;14.07;100.00;97593.53;10278004;28;20138;-50
2023/05/18 08:38:07;;;;;;;;;;;;;;;14.19;100.00;97595.91;10279021;28;20034;-51
2023/05/18 08:43:17;;;;;;;19.30;15.20;;;;;;;14.39;99.33;97596.41;10279384;28;19953;-51
2023/05/18 08:48:17;;;;;;;16.95;13.52;;;;;;;14.51;97.74;97595.31;10278158;28;20105;-51
2023/05/18 08:53:18;;;;;;;18.00;13.05;;;;;;;14.73;95.30;97603.66;10277875;28;20125;-50
2023/05/18 08:58:18;;;;;;;16.42;12.95;;;;;;;14.92;97.11;97611.09;10278849;28;20501;-50
2023/05/18 09:03:18;;;;;;;15.40;11.48;;;;;;;14.74;93.56;97621.03;10277929;28;20643;-50
2023/05/18 09:08:18;;;;;;;17.00;12.65;;;;;;;14.62;96.63;97562.03;10284564;28;20129;-51
2023/05/18 09:13:21;;;;;;;14.60;11.27;;;;;;;15.02;92.25;97607.41;10285436;28;20116;-51
2023/05/18 09:18:20;;;;;;;17.27;11.93;;;;;;;15.19;92.94;97620.97;10284193;28;20124;-50
2023/05/18 09:23:19;;;;;;;13.15;11.35;;;;;;;15.40;93.28;97624.00;10285322;28;20167;-51
2023/05/18 09:28:36;;;;;;;14.48;9.68;;;;;;;14.99;92.04;97542.13;10284574;28;20073;-51
2023/05/18 09:33:37;;;;;;;12.73;10.23;;;;;;;15.54;90.94;97627.16;10283312;28;20068;-51
2023/05/18 09:38:45;;;;;;;15.85;9.85;;;;;;;15.52;88.79;97622.88;10282624;28;20471;-51
2023/05/18 09:43:46;;;;;;;14.38;9.73;;;;;;;15.33;86.00;97631.13;10283970;28;20061;-49
2023/05/18 09:48:49;;;;;;;14.82;10.60;;;;;;;15.51;90.24;97632.47;10283398;28;20065;-49
2023/05/18 09:53:52;;;;;;;15.38;10.05;;;;;;;15.34;88.60;97608.44;10283395;28;20125;-51
2023/05/18 09:58:51;;;;;;;17.13;10.07;;;;;;;15.54;86.58;97636.78;10283450;28;20112;-50
2023/05/18 10:03:52;;;;;;;16.95;10.68;;;;;;;15.34;86.34;97637.19;10280879;28;20804;-50
2023/05/18 10:08:50;;;;;;;12.95;10.32;;;;;;;15.23;87.12;97638.31;10275452;28;20116;-50
2023/05/18 10:13:54;;;;;;;12.50;9.43;;;;;;;15.06;85.04;97639.53;10270924;28;20042;-50
2023/05/18 10:18:54;;;;;;;14.10;9.10;;;;;;;15.01;85.74;97643.13;10278191;28;20116;-50
2023/05/18 10:23:54;;;;;;;15.98;10.40;;;;;;;15.38;86.13;97646.69;10279685;28;20066;-49
2023/05/18 10:28:55;;;;;;;14.68;9.13;;;;;;;15.61;87.90;97638.34;10280948;28;20515;-51
2023/05/18 10:33:54;;;;;;;10.20;8.02;;;;;;;16.05;87.49;97645.16;10278829;28;20126;-50
2023/05/18 10:38:56;;;;;;;10.82;8.40;;;;;;;16.01;82.42;97643.50;10279729;28;20113;-51
2023/05/18 10:44:02;;;;;;;14.63;9.30;;;;;;;15.82;86.43;97652.72;10281380;28;20127;-51
2023/05/18 10:49:04;;;;;;;14.38;8.30;;;;;;;15.72;84.03;97643.34;10280715;28;20062;-51
2023/05/18 10:54:12;;;;;;;13.55;8.75;;;;;;;15.64;83.72;97648.72;10279551;28;20122;-51
2023/05/18 10:59:12;;;;;;;14.25;7.90;;;;;;;15.64;81.82;97646.13;10278536;28;20124;-51
2023/05/18 11:04:12;;;;;;;12.13;8.05;;;;;;;15.32;83.90;97607.59;10279300;28;20129;-51
2023/05/18 11:09:21;;;;;;;13.13;8.73;;;;;;;15.40;83.94;97678.91;10279550;28;20175;-51
2023/05/18 11:14:26;;;;;;;13.93;9.15;;;;;;;14.82;86.36;97618.25;10279785;28;20148;-51
2023/05/18 11:19:25;;;;;;;18.00;9.65;;;;;;;15.06;85.03;97674.41;10277274;28;20125;-51
2023/05/18 11:24:31;;;;;;;9.63;5.25;;;;;;;14.47;81.05;97689.41;10283546;28;20065;-50
2023/05/18 11:29:43;;;;;;;9.75;6.78;;;;;;;14.13;85.83;97687.38;10276407;28;20113;-52
2023/05/18 11:34:44;;;;;;;6.32;5.03;;;;;;;13.64;85.56;97694.19;10283169;28;20124;-49
2023/05/18 11:39:54;;;;;;;6.28;4.15;;;;;;;13.43;86.64;97705.75;10281210;28;20057;-50
2023/05/18 11:44:55;;;;;;;6.15;4.10;;;;;;;13.33;88.20;97704.16;10277622;28;20125;-50
2023/05/18 11:49:56;;;;;;;7.40;5.30;;;;;;;13.31;90.21;97701.56;10282345;28;20125;-51
2023/05/18 11:54:57;;;;;;;7.95;5.60;;;;;;;13.65;93.09;97721.13;10285299;28;20073;-51
2023/05/18 11:59:57;;;;;;;7.65;5.45;;;;;;;13.94;88.99;97724.19;10281955;28;20149;-50
2023/05/18 12:04:59;;;;;;;9.15;3.83;;;;;;;13.90;87.44;97729.47;10283144;28;20061;-50
2023/05/18 12:10:03;;;;;;;8.70;5.32;;;;;;;13.94;89.65;97732.00;10281000;28;20459;-51
2023/05/18 12:15:05;;;;;;;8.10;5.10;;;;;;;14.09;88.95;97743.09;10282988;28;20061;-51
2023/05/18 12:20:06;;;;;;;8.10;5.75;;;;;;;13.99;85.88;97745.84;10280821;28;20139;-51
2023/05/18 12:25:06;;;;;;;9.73;6.53;;;;;;;13.76;88.13;97745.31;10281147;28;20053;-52
2023/05/18 12:30:11;;;;;;;7.45;4.88;;;;;;;13.92;91.66;97746.81;10280498;28;20065;-52
2023/05/18 12:35:10;;;;;;;4.82;3.35;;;;;;;13.77;89.96;97726.16;10279510;28;20117;-51
2023/05/18 12:40:09;;;;;;;;;;;;;;;14.02;87.03;97757.13;10282472;28;20056;-52
2023/05/18 12:45:09;;;;;;;6.22;4.07;;;;;;;14.23;91.10;97759.41;10287283;28;19996;-51
2023/05/18 12:50:09;;;;;;;3.85;2.90;;;;;;;14.27;89.09;97755.00;10286656;28;20077;-50
2023/05/18 12:55:09;;;;;;;5.18;3.55;;;;;;;14.46;93.85;97756.44;10286763;28;20105;-50
2023/05/18 13:00:11;;;;;;;6.18;3.22;;;;;;;14.31;90.39;97691.41;10286213;28;20065;-51
2023/05/18 13:05:10;;;;;;;5.65;3.63;;;;;;;15.07;91.86;97746.69;10288350;28;20188;-51
2023/05/18 13:10:12;;;;;;;5.75;4.30;;;;;;;14.81;84.69;97731.50;10287909;28;20113;-51
2023/05/18 13:15:12;;;;;;;6.50;3.72;;;;;;;14.82;89.56;97735.81;10287103;28;20104;-51
2023/05/18 13:20:13;;;;;;;5.75;4.18;;;;;;;15.25;90.58;97729.78;10288448;28;20103;-51
2023/05/18 13:25:12;;;;;;;7.00;3.33;;;;;;;15.50;86.23;97735.34;10287197;28;20100;-51
2023/05/18 13:30:11;;;;;;;4.85;3.53;;;;;;;15.14;86.37;97743.06;10280122;28;20052;-55
2023/05/18 13:35:11;;;;;;;5.75;4.07;;;;;;;15.02;85.32;97749.38;10284167;28;20484;-51
2023/05/18 13:40:12;;;;;;;3.78;3.25;;;;;;;15.24;86.26;97746.34;10285246;28;20057;-51
2023/05/18 13:45:12;;;;;;;5.05;3.20;;;;;;;15.33;82.73;97751.38;10283281;28;20054;-51
2023/05/18 13:50:11;;;;;;;6.03;3.28;;;;;;;15.46;84.15;97759.84;10284540;28;20077;-51
2023/05/18 13:55:10;;;;;;;6.97;3.10;;;;;;;15.60;79.37;97757.81;10285913;28;20116;-51
2023/05/18 14:00:12;;;;;;;4.10;2.78;;;;;;;15.66;81.50;97755.06;10286790;28;20034;-51
2023/05/18 14:05:11;;;;;;;5.15;3.08;;;;;;;15.54;80.42;97705.63;10284340;28;20061;-52
2023/05/18 14:10:13;;;;;;;5.28;3.63;;;;;;;16.16;82.66;97752.25;10284040;28;20101;-51
2023/05/18 14:15:12;;;;;;;6.22;4.20;;;;;;;16.54;82.12;97752.22;10284497;28;20507;-52
2023/05/18 14:20:11;;;;;;;3.33;2.83;;;;;;;16.43;77.25;97727.13;10282112;28;20069;-52
2023/05/18 14:25:10;;;;;;;6.32;2.95;;;;;;;15.97;78.37;97736.09;10284592;28;20475;-51
2023/05/18 14:30:10;;;;;;;5.32;2.65;;;;;;;15.49;77.38;97738.00;10285740;28;20512;-54
2023/05/18 14:35:09;;;;;;;4.10;3.40;;;;;;;15.54;78.97;97757.06;10285787;28;20121;-52
2023/05/18 14:40:08;;;;;;;8.30;4.10;;;;;;;15.23;77.32;97745.50;10285217;28;20076;-52
2023/05/18 14:45:08;;;;;;;5.50;3.03;;;;;;;15.44;75.98;97740.72;10284271;28;20121;-52
2023/05/18 14:50:07;;;;;;;4.57;3.47;;;;;;;15.27;78.44;97703.59;10283705;28;20121;-51
2023/05/18 14:55:06;;;;;;;6.03;3.45;;;;;;;15.41;73.68;97748.59;10282752;28;20076;-52
2023/05/18 15:00:06;;;;;;;4.65;2.38;;;;;;;15.47;74.41;97745.88;10281498;28;20058;-52
2023/05/18 15:05:05;;;;;;;3.35;2.10;;;;;;;15.64;78.07;97748.97;10280778;28;20065;-52
2023/05/18 15:10:06;;;;;;;5.75;3.22;;;;;;;15.57;79.80;97704.69;10283510;28;20499;-52
2023/05/18 15:15:05;;;;;;;4.30;3.20;;;;;;;15.91;80.62;97727.53;10282146;28;20125;-51
2023/05/18 15:20:06;;;;;;;5.35;3.05;;;;;;;16.13;81.93;97725.28;10281440;28;20061;-52
2023/05/18 15:25:06;;;;;;;3.88;2.67;;;;;;;16.37;78.78;97737.78;10282376;28;20061;-51
2023/05/18 15:30:10;;;;;;;5.88;3.30;;;;;;;16.21;78.64;97681.44;10282336;28;20113;-51
2023/05/18 15:35:09;;;;;;;4.57;3.00;;;;;;;16.25;75.96;97667.38;10283178;28;20125;-52
2023/05/18 15:40:08;;;;;;;5.32;2.40;;;;;;;16.58;72.76;97732.88;10282812;28;20511;-51
2023/05/18 15:45:07;;;;;;;5.10;2.90;;;;;;;16.39;75.09;97741.19;10281922;28;20113;-51
2023/05/18 15:50:07;;;;;;;6.22;3.92;;;;;;;16.21;71.87;97718.09;10271986;28;20651;-51
2023/05/18 15:55:07;;;;;;;8.30;4.07;;;;;;;16.23;76.81;97729.38;10275728;28;20606;-51
2023/05/18 16:00:08;;;;;;;4.53;3.03;;;;;;;16.43;78.34;97735.00;10272194;28;20124;-51
2023/05/18 16:05:07;;;;;;;3.20;2.75;;;;;;;16.57;76.93;97752.13;10264951;28;20105;-51
2023/05/18 16:10:06;;;;;;;6.25;2.83;;;;;;;16.47;78.73;97748.88;10281258;28;20834;-51
2023/05/18 16:15:06;;;;;;;5.28;3.20;;;;;;;16.07;78.23;97715.81;10285441;28;20061;-51
2023/05/18 16:20:05;;;;;;;7.63;4.35;;;;;;;16.12;76.03;97742.75;10288012;28;20076;-51
2023/05/18 16:25:05;;;;;;;7.63;3.97;;;;;;;16.11;77.91;97767.19;10289666;28;20076;-51
2023/05/18 16:30:04;;;;;;;9.30;5.28;;;;;;;15.95;79.09;97771.03;10288936;28;20821;-50
2023/05/18 16:35:04;;;;;;;12.05;5.80;;;;;;;15.87;81.61;97772.06;10288181;28;20231;-51
2023/05/18 16:40:04;;;;;;;10.00;5.97;;;;;;;15.80;82.99;97777.47;10287691;28;20065;-51
2023/05/18 16:45:03;;;;;;;7.63;5.80;;;;;;;15.66;84.11;97778.59;10288247;28;20121;-50
2023/05/18 16:50:03;;;;;;;11.60;7.20;;;;;;;15.51;84.53;97778.94;10288411;28;20141;-51
2023/05/18 16:55:02;;;;;;;12.95;7.22;;;;;;;15.32;85.92;97775.81;10281587;28;20173;-51
2023/05/18 17:00:01;;;;;;;10.40;7.65;;;;;;;14.91;86.88;97721.72;10281969;28;20142;-51
2023/05/18 17:05:00;;;;;;;11.82;8.70;;;;;;;15.04;88.56;97762.41;10284144;28;20560;-50
2023/05/18 17:09:59;;;;;;;12.90;9.43;;;;;;;15.00;88.15;97808.63;10283325;28;20117;-51
2023/05/18 17:14:58;;;;;;;15.15;10.95;;;;;;;14.82;89.17;97808.97;10284632;28;20061;-51
2023/05/18 17:19:57;;;;;;;15.05;11.25;;;;;;;14.67;90.26;97815.28;10285713;28;20846;-51
2023/05/18 17:24:56;;;;;;;12.05;9.38;;;;;;;14.24;90.69;97768.97;10284096;28;20042;-51
2023/05/18 17:29:54;;;;;;;;;;;;;;;14.35;91.51;97813.16;10284678;28;20172;-52
2023/05/18 17:34:53;;;;;;;11.82;7.82;;;;;;;14.26;91.29;97824.59;10284179;28;19928;-51
2023/05/18 17:39:52;;;;;;;;;;;;;;;14.19;91.40;97843.84;10284931;28;20034;-51
2023/05/18 17:44:51;;;;;;;11.20;8.80;;;;;;;14.14;92.42;97848.28;10283692;28;19920;-51
2023/05/18 17:49:50;;;;;;;;;;;;;;;14.01;92.21;97855.41;10280862;28;20532;-51
2023/05/18 17:54:51;;;;;;;13.57;8.43;;;;;;;13.86;93.01;97846.03;10281532;28;20374;-51
2023/05/18 17:59:49;;;;;;;11.43;7.35;;;;;;;13.64;92.98;97816.75;10282591;28;20088;-51
2023/05/18 18:04:48;;;;;;;;;;;;;;;13.62;94.04;97831.56;10282511;28;20136;-52
2023/05/18 18:09:47;;;;;;;11.38;7.13;;;;;;;13.49;92.89;97830.81;10283737;28;20338;-51
2023/05/18 18:14:46;;;;;;;;;;;;;;;13.32;94.11;97844.00;10282542;28;20033;-52
2023/05/18 18:19:46;;;;;;;9.20;7.07;;;;;;;13.34;94.62;97838.78;10282474;28;19960;-51
2023/05/18 18:24:45;;;;;;;9.07;6.15;;;;;;;13.35;95.09;97849.22;10283088;28;20080;-52
2023/05/18 18:29:45;;;;;;;;;;;;;;;13.34;95.57;97841.41;10282006;28;20030;-51
2023/05/18 18:34:44;;;;;;;15.18;8.88;;;;;;;12.45;95.54;97694.69;10281239;28;20409;-51
2023/05/18 18:39:42;;;;;;;;;;;;;;;13.31;95.90;97854.47;10282146;28;20133;-51
2023/05/18 18:44:41;;;;;;;15.50;12.13;;;;;;;13.08;95.50;97845.13;10281462;28;20028;-52
2023/05/18 18:49:40;;;;;;;;;;;;;;;13.17;96.27;97858.97;10281730;28;20068;-51
2023/05/18 18:54:39;;;;;;;16.52;12.63;;;;;;;13.19;96.84;97859.78;10281146;28;19952;-51
2023/05/18 18:59:38;;;;;;;14.55;10.60;;;;;;;13.19;96.31;97878.91;10280300;28;20471;-51
2023/05/18 19:04:37;;;;;;;;;;;;;;;13.06;95.87;97866.88;10280829;28;20395;-50
2023/05/18 19:09:36;;;;;;;13.10;8.40;;;;;;;13.03;96.57;97872.97;10281160;28;19927;-51
2023/05/18 19:14:34;;;;;;;;;;;;;;;12.98;96.88;97877.34;10280488;28;20037;-52
2023/05/18 19:19:36;;;;;;;14.02;9.38;;;;;;;12.99;97.17;97886.88;10278890;28;20042;-52
2023/05/18 19:24:35;;;;;;;13.35;9.23;;;;;;;12.68;97.19;97855.91;10280436;28;20515;-52
2023/05/18 19:29:36;;;;;;;;;;;;;;;12.81;97.75;97887.03;10279625;28;20566;-51
2023/05/18 19:34:35;;;;;;;13.88;9.88;;;;;;;12.80;98.13;97890.53;10280491;28;20003;-51
2023/05/18 19:39:33;;;;;;;;;;;;;;;12.79;98.56;97884.47;10280116;28;20037;-52
2023/05/18 19:44:32;;;;;;;12.48;8.15;;;;;;;12.78;98.10;97897.50;10279262;28;19961;-51
2023/05/18 19:49:31;;;;;;;10.07;6.57;;;;;;;12.78;97.72;97913.09;10261244;28;20038;-51
2023/05/18 19:54:30;;;;;;;;;;;;;;;12.70;97.48;97914.03;10280089;28;20040;-52
2023/05/18 19:59:29;;;;;;;13.95;7.13;;;;;;;12.43;97.59;97854.34;10278440;28;19914;-51
2023/05/18 20:04:28;;;;;;;;;;;;;;;12.72;97.66;97909.69;10279596;28;20530;-52
2023/05/18 20:09:28;;;;;;;8.02;5.25;;;;;;;12.70;96.47;97908.81;10278831;28;20012;-52
2023/05/18 20:14:27;;;;;;;7.88;5.45;;;;;;;12.63;96.85;97908.88;10277993;28;20234;-52
2023/05/18 20:19:26;;;;;;;9.50;5.97;;;;;;;12.46;96.33;97911.56;10279495;28;20460;-52
2023/05/18 20:24:25;;;;;;;;;;;;;;;12.48;96.61;97915.03;10279814;28;20451;-51
2023/05/18 20:29:24;;;;;;;9.77;4.55;;;;;;;12.38;96.00;97934.19;10278592;28;20018;-51
2023/05/18 20:34:23;;;;;;;9.18;5.43;;;;;;;12.29;96.57;97933.34;10278079;28;20455;-50
2023/05/18 20:39:21;;;;;;;;;;;;;;;12.30;97.30;97931.63;10278581;28;20109;-52
2023/05/18 20:44:22;;;;;;;9.23;6.20;;;;;;;11.98;98.01;97877.97;10277536;28;20004;-52
2023/05/18 20:49:23;;;;;;;12.75;7.57;;;;;;;12.18;97.86;97926.44;10277612;28;20157;-51
2023/05/18 20:54:22;;;;;;;13.02;8.52;;;;;;;12.25;97.69;97933.34;10273087;28;20460;-51
2023/05/18 20:59:21;;;;;;;;;;;;;;;12.08;98.23;97930.81;10275660;28;20487;-51
2023/05/18 21:04:20;;;;;;;10.23;7.47;;;;;;;12.00;98.43;97932.59;10285122;28;20004;-50
2023/05/18 21:09:19;;;;;;;;;;;;;;;11.86;99.03;97935.25;10285935;28;20077;-52
2023/05/18 21:14:18;;;;;;;10.97;8.40;;;;;;;11.91;99.41;97935.22;10284754;28;19925;-52
2023/05/18 21:19:17;;;;;;;;;;;;;;;11.96;99.12;97944.75;10284236;28;20484;-51
2023/05/18 21:24:15;;;;;;;16.08;9.30;;;;;;;12.01;98.69;97934.31;10284013;28;19965;-51
2023/05/18 21:29:15;;;;;;;12.15;8.55;;;;;;;11.73;99.15;97879.81;10282096;28;20133;-51
2023/05/18 21:34:15;;;;;;;13.02;8.73;;;;;;;11.98;99.55;97919.59;10274246;28;20140;-52
2023/05/18 21:39:14;;;;;;;18.52;14.27;;;;;;;12.02;99.59;97936.06;10280139;28;20410;-51
2023/05/18 21:44:13;;;;;;;;;;;;;;;12.02;99.52;97938.66;10281338;28;20033;-51
2023/05/18 21:49:12;;;;;;;17.42;13.15;;;;;;;12.04;99.99;97929.97;10280820;28;20011;-50
2023/05/18 21:54:10;;;;;;;18.65;12.93;;;;;;;12.06;100.00;97925.66;10280742;28;20041;-52
2023/05/18 21:59:10;;;;;;;16.55;12.35;;;;;;;11.92;100.00;97903.16;10281324;28;20575;-51
2023/05/18 22:04:08;;;;;;;19.63;12.02;;;;;;;12.10;99.68;97923.88;10283294;28;20161;-51
2023/05/18 22:09:07;;;;;;;18.52;12.70;;;;;;;12.13;99.87;97923.00;10280339;28;20456;-51
2023/05/18 22:14:06;;;;;;;;;;;;;;;12.15;99.52;97927.31;10280544;28;20161;-51
2023/05/18 22:19:05;;;;;;;18.15;12.63;;;;;;;11.82;99.29;97913.56;10278420;28;19960;-51
2023/05/18 22:24:04;;;;;;;;;;;;;;;11.66;100.00;97935.28;10278723;28;20285;-50
2023/05/18 22:29:03;;;;;;;15.77;11.27;;;;;;;11.43;100.00;97933.63;10279058;28;20009;-51
2023/05/18 22:34:02;;;;;;;;;;;;;;;11.31;100.00;97931.03;10281576;28;20137;-51
2023/05/18 22:39:01;;;;;;;16.00;11.63;;;;;;;11.43;100.00;97919.75;10281931;28;19913;-52
2023/05/18 22:44:00;;;;;;;17.45;10.75;;;;;;;11.63;100.00;97919.72;10280998;28;20049;-51
2023/05/18 22:48:59;;;;;;;;;;;;;;;11.61;100.00;97916.25;10281775;28;20143;-52
2023/05/18 22:53:58;;;;;;;18.50;9.60;;;;;;;11.75;100.00;97922.28;10281897;28;19928;-49
2023/05/18 22:58:57;;;;;;;13.68;9.15;;;;;;;11.79;100.00;97921.41;10280986;28;20065;-52
2023/05/18 23:03:56;;;;;;;;;;;;;;;11.82;100.00;97917.91;10280944;28;20041;-52
2023/05/18 23:08:55;;;;;;;14.80;10.32;;;;;;;11.83;100.00;97912.72;10281433;28;20032;-51
2023/05/18 23:13:54;;;;;;;16.38;8.18;;;;;;;11.80;100.00;97910.13;10281283;28;20140;-52
2023/05/18 23:18:53;;;;;;;;;;;;;;;11.80;99.63;97904.06;10280370;28;20029;-50
2023/05/18 23:23:53;;;;;;;11.38;6.75;;;;;;;11.66;99.57;97906.69;10280224;28;19914;-50